Krugerville, Texas
Current Conditions -  °F | °C
As of 4:53 AM on Saturday 20 Dec 2014 (Local Time) from KDTO Reporting Station
Overcast Overcast  
Wind Chill: 41°   Ceiling: 1700
Heat Index: 44°   Visibility: 9mi
Dew Point: 41°   Wind: 6mph
Humidity: 89%   Direction: 360°N
Pressure: 30.22"   Gusts: NA
Location:  33.2863°N, 96.9901°W
Report Text: KDTO 201053Z AUTO 36005KT 9SM OVC017 07/05 A3022 RMK AO2 SLP232 T00670050
Loading
Personal Weather Stations






























Interactive Weather Map New forecast layout! Learn more

10-Day Weather Forecast

Advertisements
Track Severe Weather on mobile